Lowville, New York
Current Conditions -  °F | °C
As of 11:58 PM on Wednesday 22 Oct 2014 (Local Time) from KGTB Reporting Station
Clear Clear  
Wind Chill:   Ceiling: Unl
Heat Index:   Visibility: 10mi
Dew Point:   Wind: 17mph
Humidity: 65%   Direction: 30°NNE
Pressure: 30.09"   Gusts: NA
Location:  43.79°N, 75.49°W
Report Text: KGTB 230358Z AUTO 03015KT 10SM CLR 07/01 A3009 RMK AO2 SLP194 T00730012
Loading
Personal Weather Stations






























Interactive Weather Map New forecast layout! Learn more

10-Day Weather Forecast

Advertisements
Track Severe Weather on mobile